createdAt,value
2017-11-28T00:00:15.906Z,0
2017-11-28T00:01:15.887Z,0
2017-11-28T00:02:15.339Z,0
2017-11-28T00:03:15.946Z,0
2017-11-28T00:04:15.583Z,0
2017-11-28T00:05:15.835Z,0
2017-11-28T00:06:15.560Z,0
2017-11-28T00:07:15.807Z,0
2017-11-28T00:08:15.813Z,0
2017-11-28T00:09:15.527Z,0
2017-11-28T00:10:15.518Z,0
2017-11-28T00:11:15.809Z,0
2017-11-28T00:12:15.493Z,0
2017-11-28T00:13:15.759Z,0
2017-11-28T00:14:15.740Z,0
2017-11-28T00:15:14.949Z,0
2017-11-28T00:16:15.203Z,0
2017-11-28T00:17:15.808Z,0
2017-11-28T00:18:15.556Z,0
2017-11-28T00:19:15.689Z,0
2017-11-28T00:20:15.672Z,0
2017-11-28T00:21:15.409Z,0
2017-11-28T00:22:15.654Z,0
2017-11-28T00:23:15.653Z,0
2017-11-28T00:24:15.645Z,0
2017-11-28T00:25:15.739Z,0
2017-11-28T00:26:15.625Z,0
2017-11-28T00:27:15.603Z,0
2017-11-28T00:28:15.082Z,0
2017-11-28T00:29:15.690Z,0
2017-11-28T00:30:15.618Z,0
2017-11-28T00:31:15.310Z,0
2017-11-28T00:32:15.040Z,0
2017-11-28T00:33:15.602Z,0
2017-11-28T00:34:15.547Z,0
2017-11-28T00:35:15.364Z,0
2017-11-28T00:36:15.268Z,0
2017-11-28T00:37:15.508Z,0
2017-11-28T00:38:15.233Z,0
2017-11-28T00:39:15.221Z,0
2017-11-28T00:40:15.476Z,0
2017-11-28T00:41:15.303Z,0
2017-11-28T00:42:15.472Z,0
2017-11-28T00:43:15.279Z,0
2017-11-28T00:44:15.430Z,0
2017-11-28T00:45:15.261Z,0
2017-11-28T00:46:15.159Z,0
2017-11-28T00:47:15.404Z,0
2017-11-28T00:48:14.875Z,0
2017-11-28T00:49:15.120Z,0
2017-11-28T00:50:15.107Z,0
2017-11-28T00:51:15.102Z,0
2017-11-28T00:52:15.090Z,0
2017-11-28T00:53:15.178Z,0
2017-11-28T00:54:15.336Z,0
2017-11-28T00:55:15.324Z,0
2017-11-28T00:56:15.057Z,0
2017-11-28T00:57:15.397Z,0
2017-11-28T00:58:15.401Z,0
2017-11-28T00:59:15.016Z,0
2017-11-28T01:00:15.374Z,0
2017-11-28T01:01:15.277Z,0
2017-11-28T01:02:14.992Z,0
2017-11-28T01:03:15.236Z,0
2017-11-28T01:04:14.971Z,0
2017-11-28T01:05:14.963Z,0
2017-11-28T01:06:15.210Z,0
2017-11-28T01:07:15.197Z,0
2017-11-28T01:08:14.928Z,0
2017-11-28T01:09:15.181Z,0
2017-11-28T01:10:15.011Z,0
2017-11-28T01:11:15.157Z,0
2017-11-28T01:12:14.629Z,0
2017-11-28T01:13:14.886Z,0
2017-11-28T01:14:15.135Z,0
2017-11-28T01:15:14.958Z,0
2017-11-28T01:16:14.328Z,0
2017-11-28T01:17:15.097Z,0
2017-11-28T01:18:14.935Z,0
2017-11-28T01:19:15.077Z,0
2017-11-28T01:20:14.809Z,0
2017-11-28T01:21:15.056Z,0
2017-11-28T01:22:14.793Z,0
2017-11-28T01:23:15.035Z,0
2017-11-28T01:24:14.787Z,0
2017-11-28T01:25:15.015Z,0
2017-11-28T01:26:15.041Z,0
2017-11-28T01:27:15.004Z,0
2017-11-28T01:28:14.996Z,0
2017-11-28T01:29:14.987Z,0
2017-11-28T01:30:14.448Z,0
2017-11-28T01:31:14.704Z,0
2017-11-28T01:32:14.947Z,0
2017-11-28T01:33:15.036Z,0
2017-11-28T01:34:14.664Z,0
2017-11-28T01:35:14.655Z,0
2017-11-28T01:36:14.906Z,0
2017-11-28T01:37:14.672Z,0
2017-11-28T01:38:14.627Z,0
2017-11-28T01:39:14.363Z,0
2017-11-28T01:40:14.869Z,0
2017-11-28T01:41:14.595Z,0
2017-11-28T01:42:14.843Z,0
2017-11-28T01:43:14.854Z,0
2017-11-28T01:44:14.825Z,0
2017-11-28T01:45:14.824Z,0
2017-11-28T01:46:14.556Z,0
2017-11-28T01:47:14.277Z,0
2017-11-28T01:48:14.532Z,0
2017-11-28T01:49:14.544Z,0
2017-11-28T01:50:14.774Z,0
2017-11-28T01:51:14.502Z,0
2017-11-28T01:52:14.845Z,0
2017-11-28T01:53:14.216Z,0
2017-11-28T01:54:14.467Z,0
2017-11-28T01:55:14.457Z,0
2017-11-28T01:56:14.704Z,0
2017-11-28T01:57:14.701Z,0
2017-11-28T01:58:14.795Z,0
2017-11-28T01:59:14.415Z,0
2017-11-28T02:00:14.440Z,0
2017-11-28T02:01:14.408Z,0
2017-11-28T02:02:14.650Z,0
2017-11-28T02:03:14.374Z,0
2017-11-28T02:04:14.111Z,0
2017-11-28T02:05:14.710Z,0
2017-11-28T02:06:14.615Z,0
2017-11-28T02:07:14.596Z,0
2017-11-28T02:08:14.063Z,0
2017-11-28T02:09:14.314Z,0
2017-11-28T02:10:14.570Z,0
2017-11-28T02:11:14.565Z,0
2017-11-28T02:12:14.543Z,0
2017-11-28T02:13:14.271Z,0
2017-11-28T02:14:14.266Z,0
2017-11-28T02:15:14.516Z,0
2017-11-28T02:16:14.270Z,0
2017-11-28T02:17:14.495Z,0
2017-11-28T02:18:14.500Z,0
2017-11-28T02:19:14.581Z,0
2017-11-28T02:20:14.205Z,0
2017-11-28T02:21:14.197Z,0
2017-11-28T02:22:14.206Z,0
2017-11-28T02:23:14.445Z,0
2017-11-28T02:24:14.163Z,0
2017-11-28T02:25:14.414Z,0
2017-11-28T02:26:14.145Z,0
2017-11-28T02:27:13.875Z,0
2017-11-28T02:28:14.383Z,0
2017-11-28T02:29:14.376Z,0
2017-11-28T02:30:14.109Z,0
2017-11-28T02:31:14.367Z,0
2017-11-28T02:32:14.370Z,0
2017-11-28T02:33:14.082Z,0
2017-11-28T02:34:14.324Z,0
2017-11-28T02:35:14.339Z,0
2017-11-28T02:36:14.098Z,0
2017-11-28T02:37:14.038Z,0
2017-11-28T02:38:14.526Z,0
2017-11-28T02:39:14.315Z,0
2017-11-28T02:40:14.120Z,0
2017-11-28T02:41:14.262Z,0
2017-11-28T02:42:13.724Z,0
2017-11-28T02:43:13.977Z,0
2017-11-28T02:44:13.970Z,0
2017-11-28T02:45:14.227Z,0
2017-11-28T02:46:13.942Z,0
2017-11-28T02:47:13.681Z,0
2017-11-28T02:48:13.665Z,0
2017-11-28T02:49:14.238Z,0
2017-11-28T02:50:13.914Z,0
2017-11-28T02:51:13.892Z,0
2017-11-28T02:52:13.883Z,0
2017-11-28T02:53:13.872Z,0
2017-11-28T02:54:13.343Z,0
2017-11-28T02:55:14.124Z,0
2017-11-28T02:56:14.124Z,0
2017-11-28T02:57:13.575Z,0
2017-11-28T02:58:14.084Z,0
2017-11-28T02:59:13.812Z,0
2017-11-28T03:00:13.915Z,0
2017-11-28T03:01:14.056Z,0
2017-11-28T03:02:13.783Z,0
2017-11-28T03:03:14.039Z,0
2017-11-28T03:04:13.765Z,0
2017-11-28T03:05:14.015Z,0
2017-11-28T03:06:13.995Z,0
2017-11-28T03:07:13.477Z,0
2017-11-28T03:08:13.718Z,0
2017-11-28T03:09:13.713Z,0
2017-11-28T03:10:13.965Z,0
2017-11-28T03:11:13.956Z,0
2017-11-28T03:12:13.935Z,0
2017-11-28T03:13:13.408Z,0
2017-11-28T03:14:13.653Z,0
2017-11-28T03:15:13.911Z,0
2017-11-28T03:16:13.899Z,0
2017-11-28T03:17:13.889Z,0
2017-11-28T03:18:13.876Z,0
2017-11-28T03:19:13.607Z,0
2017-11-28T03:20:13.854Z,0
2017-11-28T03:21:13.593Z,0
2017-11-28T03:22:13.830Z,0
2017-11-28T03:23:13.824Z,0
2017-11-28T03:24:13.815Z,0
2017-11-28T03:25:13.811Z,0
2017-11-28T03:26:13.802Z,0
2017-11-28T03:27:13.790Z,0
2017-11-28T03:28:13.255Z,0
2017-11-28T03:29:13.797Z,0
2017-11-28T03:30:13.867Z,0
2017-11-28T03:31:13.779Z,0
2017-11-28T03:32:13.469Z,0
2017-11-28T03:33:13.725Z,0
2017-11-28T03:34:13.446Z,0
2017-11-28T03:35:13.453Z,0
2017-11-28T03:36:13.175Z,0
2017-11-28T03:37:13.672Z,0
2017-11-28T03:38:13.146Z,0
2017-11-28T03:39:13.654Z,0
2017-11-28T03:40:13.127Z,0
2017-11-28T03:41:13.739Z,0
2017-11-28T03:42:13.363Z,0
2017-11-28T03:43:13.614Z,0
2017-11-28T03:44:13.613Z,0
2017-11-28T03:45:13.330Z,0
2017-11-28T03:46:13.578Z,0
2017-11-28T03:47:13.568Z,0
2017-11-28T03:48:13.570Z,0
2017-11-28T03:49:13.386Z,0
2017-11-28T03:50:13.635Z,0
2017-11-28T03:51:13.530Z,0
2017-11-28T03:52:13.613Z,0
2017-11-28T03:53:13.250Z,0
2017-11-28T03:54:12.975Z,0
2017-11-28T03:55:13.231Z,0
2017-11-28T03:56:13.220Z,0
2017-11-28T03:57:13.465Z,0
2017-11-28T03:58:13.291Z,0
2017-11-28T03:59:13.439Z,0
2017-11-28T04:00:13.197Z,0
2017-11-28T04:01:13.435Z,0
2017-11-28T04:02:13.411Z,0
2017-11-28T04:03:13.400Z,0
2017-11-28T04:04:13.486Z,0
2017-11-28T04:05:13.117Z,0
2017-11-28T04:06:13.119Z,0
2017-11-28T04:07:13.093Z,0
2017-11-28T04:08:13.349Z,0
2017-11-28T04:09:13.475Z,0
2017-11-28T04:10:13.322Z,0
2017-11-28T04:11:13.317Z,0
2017-11-28T04:12:13.039Z,0
2017-11-28T04:13:13.291Z,0
2017-11-28T04:14:13.279Z,0
2017-11-28T04:15:13.008Z,0
2017-11-28T04:16:13.257Z,0
2017-11-28T04:17:12.985Z,0
2017-11-28T04:18:13.252Z,0
2017-11-28T04:19:13.021Z,0
2017-11-28T04:20:13.220Z,0
2017-11-28T04:21:13.208Z,0
2017-11-28T04:22:13.201Z,0
2017-11-28T04:23:13.184Z,0
2017-11-28T04:24:12.913Z,0
2017-11-28T04:25:12.901Z,0
2017-11-28T04:26:12.891Z,0
2017-11-28T04:27:12.879Z,0
2017-11-28T04:28:12.870Z,0
2017-11-28T04:29:13.118Z,0
2017-11-28T04:30:12.592Z,0
2017-11-28T04:31:12.835Z,0
2017-11-28T04:32:12.564Z,0
2017-11-28T04:33:12.310Z,0
2017-11-28T04:34:12.801Z,0
2017-11-28T04:35:12.801Z,0
2017-11-28T04:36:12.781Z,0
2017-11-28T04:37:12.617Z,0
2017-11-28T04:38:13.024Z,0
2017-11-28T04:39:13.011Z,0
2017-11-28T04:40:12.995Z,0
2017-11-28T04:41:12.990Z,0
2017-11-28T04:42:12.457Z,0
2017-11-28T04:43:12.974Z,0
2017-11-28T04:44:12.731Z,0
2017-11-28T04:45:12.424Z,0
2017-11-28T04:46:12.687Z,0
2017-11-28T04:47:12.667Z,0
2017-11-28T04:48:12.921Z,0
2017-11-28T04:49:13.000Z,0
2017-11-28T04:50:12.897Z,0
2017-11-28T04:51:12.616Z,0
2017-11-28T04:52:12.869Z,0
2017-11-28T04:53:12.858Z,0
2017-11-28T04:54:12.853Z,0
2017-11-28T04:55:12.844Z,0
2017-11-28T04:56:12.608Z,0
2017-11-28T04:57:12.810Z,0
2017-11-28T04:58:12.550Z,0
2017-11-28T04:59:12.272Z,0
2017-11-28T05:00:12.524Z,0
2017-11-28T05:01:12.765Z,0
2017-11-28T05:02:12.237Z,0
2017-11-28T05:03:12.488Z,0
2017-11-28T05:04:12.482Z,0
2017-11-28T05:05:12.732Z,0
2017-11-28T05:06:12.460Z,0
2017-11-28T05:07:12.446Z,0
2017-11-28T05:08:12.700Z,0
2017-11-28T05:09:12.422Z,0
2017-11-28T05:10:12.414Z,0
2017-11-28T05:11:12.667Z,0
2017-11-28T05:12:12.132Z,0
2017-11-28T05:13:12.645Z,0
2017-11-28T05:14:12.373Z,0
2017-11-28T05:15:12.625Z,0
2017-11-28T05:16:12.632Z,0
2017-11-28T05:17:12.332Z,0
2017-11-28T05:18:12.694Z,0
2017-11-28T05:19:12.311Z,0
2017-11-28T05:20:12.305Z,0
2017-11-28T05:21:12.133Z,0
2017-11-28T05:22:12.026Z,0
2017-11-28T05:23:12.380Z,0
2017-11-28T05:24:12.376Z,0
2017-11-28T05:25:12.250Z,0
2017-11-28T05:26:12.244Z,0
2017-11-28T05:27:12.486Z,0
2017-11-28T05:28:12.478Z,0
2017-11-28T05:29:12.570Z,0
2017-11-28T05:30:12.469Z,0
2017-11-28T05:31:12.191Z,0
2017-11-28T05:32:12.187Z,0
2017-11-28T05:33:12.163Z,0
2017-11-28T05:34:12.413Z,0
2017-11-28T05:35:11.887Z,0
2017-11-28T05:36:12.239Z,0
2017-11-28T05:37:12.381Z,0
2017-11-28T05:38:12.108Z,0
2017-11-28T05:39:12.367Z,0
2017-11-28T05:40:12.356Z,0
2017-11-28T05:41:12.340Z,0
2017-11-28T05:42:12.163Z,0
2017-11-28T05:43:12.176Z,0
2017-11-28T05:44:12.055Z,0
2017-11-28T05:45:12.293Z,0
2017-11-28T05:46:12.309Z,0
2017-11-28T05:47:11.751Z,0
2017-11-28T05:48:12.265Z,0
2017-11-28T05:49:12.088Z,0
2017-11-28T05:50:12.238Z,0
2017-11-28T05:51:11.970Z,0
2017-11-28T05:52:12.219Z,0
2017-11-28T05:53:12.203Z,0
2017-11-28T05:54:12.200Z,0
2017-11-28T05:55:11.664Z,0
2017-11-28T05:56:11.653Z,0
2017-11-28T05:57:11.920Z,0
2017-11-28T05:58:11.918Z,0
2017-11-28T05:59:11.879Z,0
2017-11-28T06:00:11.339Z,0
2017-11-28T06:01:12.100Z,0
2017-11-28T06:02:12.102Z,0
2017-11-28T06:03:11.819Z,0
2017-11-28T06:04:11.814Z,0
2017-11-28T06:05:11.833Z,0
2017-11-28T06:06:11.633Z,0
2017-11-28T06:07:12.034Z,0
2017-11-28T06:08:11.511Z,0
2017-11-28T06:09:12.125Z,0
2017-11-28T06:10:12.115Z,0
2017-11-28T06:11:12.103Z,0
2017-11-28T06:12:11.726Z,0
2017-11-28T06:13:11.979Z,0
2017-11-28T06:14:11.706Z,0
2017-11-28T06:15:11.704Z,0
2017-11-28T06:16:11.988Z,0
2017-11-28T06:17:11.780Z,0
2017-11-28T06:18:11.665Z,0
2017-11-28T06:19:11.649Z,0
2017-11-28T06:20:11.900Z,0
2017-11-28T06:21:12.010Z,0
2017-11-28T06:22:11.880Z,0
2017-11-28T06:23:11.865Z,0
2017-11-28T06:24:11.599Z,0
2017-11-28T06:25:11.949Z,0
2017-11-28T06:26:11.835Z,0
2017-11-28T06:27:11.824Z,0
2017-11-28T06:28:11.564Z,0
2017-11-28T06:29:11.799Z,4
2017-11-28T06:30:11.543Z,4
2017-11-28T06:31:11.794Z,4
2017-11-28T06:32:11.777Z,0
2017-11-28T06:33:11.762Z,4
2017-11-28T06:34:11.749Z,4
2017-11-28T06:35:11.495Z,4
2017-11-28T06:36:11.729Z,4
2017-11-28T06:37:11.717Z,4
2017-11-28T06:38:11.458Z,8
2017-11-28T06:39:11.708Z,8
2017-11-28T06:40:11.702Z,8
2017-11-28T06:41:11.681Z,12
2017-11-28T06:42:11.400Z,12
2017-11-28T06:43:11.646Z,12
2017-11-28T06:44:11.643Z,12
2017-11-28T06:45:11.376Z,16
2017-11-28T06:46:11.731Z,16
2017-11-28T06:47:11.349Z,16
2017-11-28T06:48:11.335Z,20
2017-11-28T06:49:11.427Z,20
2017-11-28T06:50:11.582Z,24
2017-11-28T06:51:11.562Z,24
2017-11-28T06:52:11.297Z,28
2017-11-28T06:53:11.546Z,28
2017-11-28T06:54:11.535Z,32
2017-11-28T06:55:11.529Z,36
2017-11-28T06:56:10.991Z,36
2017-11-28T06:57:11.498Z,40
2017-11-28T06:58:11.080Z,44
2017-11-28T06:59:11.473Z,44
2017-11-28T07:00:11.472Z,48
2017-11-28T07:01:11.200Z,52
2017-11-28T07:02:11.449Z,56
2017-11-28T07:03:11.183Z,56
2017-11-28T07:04:11.169Z,60
2017-11-28T07:05:11.523Z,64
2017-11-28T07:06:11.243Z,64
2017-11-28T07:07:11.145Z,72
2017-11-28T07:08:11.127Z,76
2017-11-28T07:09:11.368Z,80
2017-11-28T07:10:11.369Z,84
2017-11-28T07:11:11.347Z,88
2017-11-28T07:12:10.825Z,88
2017-11-28T07:13:11.328Z,92
2017-11-28T07:14:11.325Z,96
2017-11-28T07:15:11.304Z,104
2017-11-28T07:16:11.296Z,104
2017-11-28T07:17:11.282Z,108
2017-11-28T07:18:11.271Z,108
2017-11-28T07:19:11.038Z,108
2017-11-28T07:20:10.999Z,112
2017-11-28T07:21:11.243Z,120
2017-11-28T07:22:11.073Z,120
2017-11-28T07:23:10.702Z,124
2017-11-28T07:24:11.212Z,128
2017-11-28T07:25:10.701Z,132
2017-11-28T07:26:11.030Z,136
2017-11-28T07:27:11.283Z,140
2017-11-28T07:28:10.902Z,144
2017-11-28T07:29:11.153Z,148
2017-11-28T07:30:11.142Z,152
2017-11-28T07:31:11.139Z,160
2017-11-28T07:32:11.323Z,160
2017-11-28T07:33:10.859Z,164
2017-11-28T07:34:11.108Z,168
2017-11-28T07:35:11.087Z,168
2017-11-28T07:36:10.571Z,176
2017-11-28T07:37:10.810Z,180
2017-11-28T07:38:10.809Z,184
2017-11-28T07:39:10.533Z,188
2017-11-28T07:40:11.140Z,196
2017-11-28T07:41:10.510Z,200
2017-11-28T07:42:10.497Z,200
2017-11-28T07:43:11.008Z,204
2017-11-28T07:44:10.582Z,204
2017-11-28T07:45:10.999Z,208
2017-11-28T07:46:10.979Z,216
2017-11-28T07:47:10.701Z,216
2017-11-28T07:48:10.956Z,216
2017-11-28T07:49:10.427Z,220
2017-11-28T07:50:10.680Z,228
2017-11-28T07:51:10.665Z,228
2017-11-28T07:52:10.761Z,240
2017-11-28T07:53:10.633Z,248
2017-11-28T07:54:10.628Z,256
2017-11-28T07:55:10.363Z,268
2017-11-28T07:56:10.348Z,276
2017-11-28T07:57:10.601Z,284
2017-11-28T07:58:10.588Z,300
2017-11-28T07:59:10.836Z,312
2017-11-28T08:00:10.582Z,336
2017-11-28T08:01:10.810Z,364
2017-11-28T08:02:10.546Z,384
2017-11-28T08:03:10.534Z,404
2017-11-28T08:04:10.780Z,408
2017-11-28T08:05:10.787Z,404
2017-11-28T08:06:10.762Z,416
2017-11-28T08:07:10.751Z,440
2017-11-28T08:08:10.224Z,484
2017-11-28T08:09:10.470Z,540
2017-11-28T08:10:10.469Z,584
2017-11-28T08:11:10.450Z,616
2017-11-28T08:12:10.446Z,632
2017-11-28T08:13:10.816Z,640
2017-11-28T08:14:10.423Z,636
2017-11-28T08:15:10.414Z,620
2017-11-28T08:16:10.396Z,596
2017-11-28T08:17:10.642Z,580
2017-11-28T08:18:10.381Z,556
2017-11-28T08:19:10.365Z,544
2017-11-28T08:20:10.094Z,556
2017-11-28T08:21:10.602Z,596
2017-11-28T08:22:10.589Z,632
2017-11-28T08:23:10.165Z,664
2017-11-28T08:24:10.585Z,700
2017-11-28T08:25:10.149Z,728
2017-11-28T08:26:10.294Z,752
2017-11-28T08:27:10.278Z,764
2017-11-28T08:28:10.545Z,780
2017-11-28T08:29:10.260Z,804
2017-11-28T08:30:09.987Z,812
2017-11-28T08:31:10.254Z,792
2017-11-28T08:32:10.486Z,800
2017-11-28T08:33:10.062Z,816
2017-11-28T08:34:10.207Z,836
2017-11-28T08:35:10.449Z,848
2017-11-28T08:36:10.185Z,872
2017-11-28T08:37:10.430Z,896
2017-11-28T08:38:10.424Z,900
2017-11-28T08:39:10.152Z,884
2017-11-28T08:40:10.145Z,868
2017-11-28T08:41:10.145Z,844
2017-11-28T08:42:10.129Z,816
2017-11-28T08:43:10.387Z,768
2017-11-28T08:44:10.462Z,728
2017-11-28T08:45:10.109Z,732
2017-11-28T08:46:10.182Z,752
2017-11-28T08:47:10.332Z,772
2017-11-28T08:48:10.059Z,800
2017-11-28T08:49:10.303Z,804
2017-11-28T08:50:10.304Z,780
2017-11-28T08:51:10.287Z,740
2017-11-28T08:52:10.286Z,708
2017-11-28T08:53:10.267Z,672
2017-11-28T08:54:10.267Z,648
2017-11-28T08:55:10.454Z,636
2017-11-28T08:56:09.721Z,628
2017-11-28T08:57:10.222Z,604
2017-11-28T08:58:10.213Z,596
2017-11-28T08:59:09.949Z,604
2017-11-28T09:00:10.069Z,624
2017-11-28T09:01:09.924Z,644
2017-11-28T09:02:10.183Z,652
2017-11-28T09:03:09.912Z,636
2017-11-28T09:04:09.912Z,624
2017-11-28T09:05:09.990Z,628
2017-11-28T09:06:10.245Z,652
2017-11-28T09:07:10.131Z,660
2017-11-28T09:08:10.141Z,644
2017-11-28T09:09:09.855Z,656
2017-11-28T09:10:09.319Z,676
2017-11-28T09:11:10.079Z,672
2017-11-28T09:12:09.835Z,680
2017-11-28T09:13:10.067Z,716
2017-11-28T09:14:10.054Z,740
2017-11-28T09:15:10.168Z,788
2017-11-28T09:16:10.029Z,800
2017-11-28T09:17:10.040Z,784
2017-11-28T09:18:09.750Z,792
2017-11-28T09:19:10.002Z,816
2017-11-28T09:20:09.744Z,816
2017-11-28T09:21:09.980Z,800
2017-11-28T09:22:09.973Z,804
2017-11-28T09:23:09.957Z,756
2017-11-28T09:24:09.790Z,792
2017-11-28T09:25:09.683Z,804
2017-11-28T09:26:09.941Z,788
2017-11-28T09:27:09.734Z,776
2017-11-28T09:28:09.907Z,744
2017-11-28T09:29:09.893Z,728
2017-11-28T09:30:09.634Z,728
2017-11-28T09:31:09.980Z,736
2017-11-28T09:32:09.352Z,728
2017-11-28T09:33:09.855Z,728
2017-11-28T09:34:09.846Z,856
2017-11-28T09:35:09.843Z,844
2017-11-28T09:36:09.829Z,848
2017-11-28T09:37:09.559Z,796
2017-11-28T09:38:09.553Z,804
2017-11-28T09:39:09.807Z,748
2017-11-28T09:40:09.553Z,740
2017-11-28T09:41:09.774Z,744
2017-11-28T09:42:09.512Z,724
2017-11-28T09:43:09.756Z,732
2017-11-28T09:44:09.746Z,728
2017-11-28T09:45:09.481Z,784
2017-11-28T09:46:09.740Z,792
2017-11-28T09:47:09.821Z,784
2017-11-28T09:48:09.724Z,760
2017-11-28T09:49:09.432Z,756
2017-11-28T09:50:09.795Z,760
2017-11-28T09:51:09.669Z,776
2017-11-28T09:52:09.402Z,788
2017-11-28T09:53:09.393Z,816
2017-11-28T09:54:09.655Z,864
2017-11-28T09:55:09.372Z,876
2017-11-28T09:56:09.636Z,876
2017-11-28T09:57:09.654Z,872
2017-11-28T09:58:09.355Z,880
2017-11-28T09:59:09.594Z,848
2017-11-28T10:00:09.072Z,864
2017-11-28T10:01:09.415Z,840
2017-11-28T10:02:09.568Z,856
2017-11-28T10:03:09.046Z,908
2017-11-28T10:04:09.581Z,928
2017-11-28T10:05:09.624Z,844
2017-11-28T10:06:09.264Z,836
2017-11-28T10:07:09.255Z,892
2017-11-28T10:08:08.986Z,940
2017-11-28T10:09:09.242Z,912
2017-11-28T10:10:09.329Z,964
2017-11-28T10:11:09.215Z,964
2017-11-28T10:12:09.461Z,936
2017-11-28T10:13:09.186Z,960
2017-11-28T10:14:09.458Z,924
2017-11-28T10:15:08.918Z,928
2017-11-28T10:16:09.422Z,852
2017-11-28T10:17:09.151Z,824
2017-11-28T10:18:09.136Z,844
2017-11-28T10:19:09.130Z,908
2017-11-28T10:20:09.382Z,960
2017-11-28T10:21:09.378Z,1000
2017-11-28T10:22:09.359Z,924
2017-11-28T10:23:09.360Z,976
2017-11-28T10:24:08.567Z,980
2017-11-28T10:25:09.327Z,952
2017-11-28T10:26:09.058Z,952
2017-11-28T10:27:09.303Z,968
2017-11-28T10:28:08.786Z,968
2017-11-28T10:29:09.285Z,956
2017-11-28T10:30:09.019Z,936
2017-11-28T10:31:09.019Z,948
2017-11-28T10:32:09.006Z,964
2017-11-28T10:33:08.996Z,956
2017-11-28T10:34:08.979Z,916
2017-11-28T10:35:09.226Z,912
2017-11-28T10:36:09.221Z,892
2017-11-28T10:37:09.206Z,876
2017-11-28T10:38:08.935Z,856
2017-11-28T10:39:09.041Z,828
2017-11-28T10:40:09.282Z,804
2017-11-28T10:41:08.903Z,788
2017-11-28T10:42:09.174Z,776
2017-11-28T10:43:08.888Z,732
2017-11-28T10:44:08.628Z,732
2017-11-28T10:45:09.123Z,752
2017-11-28T10:46:09.255Z,736
2017-11-28T10:47:08.587Z,736
2017-11-28T10:48:08.834Z,776
2017-11-28T10:49:08.826Z,780
2017-11-28T10:50:09.076Z,796
2017-11-28T10:51:09.065Z,824
2017-11-28T10:52:09.087Z,828
2017-11-28T10:53:09.143Z,828
2017-11-28T10:54:09.049Z,820
2017-11-28T10:55:08.774Z,772
2017-11-28T10:56:09.120Z,736
2017-11-28T10:57:09.099Z,736
2017-11-28T10:58:08.997Z,800
2017-11-28T10:59:08.488Z,836
2017-11-28T11:00:08.975Z,868
2017-11-28T11:01:08.705Z,852
2017-11-28T11:02:08.436Z,872
2017-11-28T11:03:08.937Z,888
2017-11-28T11:04:08.789Z,888
2017-11-28T11:05:08.687Z,868
2017-11-28T11:06:08.656Z,844
2017-11-28T11:07:08.903Z,816
2017-11-28T11:08:08.375Z,808
2017-11-28T11:09:08.626Z,816
2017-11-28T11:10:08.616Z,788
2017-11-28T11:11:08.633Z,780
2017-11-28T11:12:08.859Z,780
2017-11-28T11:13:08.867Z,776
2017-11-28T11:14:08.830Z,768
2017-11-28T11:15:08.571Z,772
2017-11-28T11:16:08.653Z,796
2017-11-28T11:17:08.126Z,804
2017-11-28T11:18:08.823Z,776
2017-11-28T11:19:08.784Z,768
2017-11-28T11:20:08.509Z,836
2017-11-28T11:21:08.769Z,864
2017-11-28T11:22:08.765Z,840
2017-11-28T11:23:08.581Z,784
2017-11-28T11:24:08.475Z,800
2017-11-28T11:25:08.459Z,840
2017-11-28T11:26:08.458Z,836
2017-11-28T11:27:08.701Z,820
2017-11-28T11:28:08.692Z,796
2017-11-28T11:29:08.268Z,764
2017-11-28T11:30:08.679Z,704
2017-11-28T11:31:08.657Z,724
2017-11-28T11:32:08.660Z,724
2017-11-28T11:33:08.684Z,712
2017-11-28T11:34:08.625Z,700
2017-11-28T11:35:08.102Z,700
2017-11-28T11:36:08.623Z,708
2017-11-28T11:37:08.354Z,724
2017-11-28T11:38:08.333Z,732
2017-11-28T11:39:08.328Z,744
2017-11-28T11:40:08.568Z,736
2017-11-28T11:41:08.556Z,740
2017-11-28T11:42:08.557Z,732
2017-11-28T11:43:08.130Z,712
2017-11-28T11:44:08.266Z,696
2017-11-28T11:45:08.008Z,696
2017-11-28T11:46:08.256Z,688
2017-11-28T11:47:08.248Z,676
2017-11-28T11:48:08.585Z,648
2017-11-28T11:49:08.507Z,672
2017-11-28T11:50:08.308Z,692
2017-11-28T11:51:08.193Z,704
2017-11-28T11:52:08.189Z,704
2017-11-28T11:53:08.019Z,704
2017-11-28T11:54:08.167Z,688
2017-11-28T11:55:08.260Z,692
2017-11-28T11:56:08.142Z,704
2017-11-28T11:57:08.130Z,696
2017-11-28T11:58:07.863Z,696
2017-11-28T11:59:08.385Z,692
2017-11-28T12:00:08.212Z,688
2017-11-28T12:01:08.359Z,680
2017-11-28T12:02:08.342Z,664
2017-11-28T12:03:07.922Z,640
2017-11-28T12:04:08.167Z,620
2017-11-28T12:05:08.157Z,608
2017-11-28T12:06:08.299Z,588
2017-11-28T12:07:08.282Z,564
2017-11-28T12:08:08.277Z,560
2017-11-28T12:09:08.012Z,564
2017-11-28T12:10:08.258Z,564
2017-11-28T12:11:08.256Z,572
2017-11-28T12:12:08.238Z,584
2017-11-28T12:13:08.224Z,596
2017-11-28T12:14:07.714Z,608
2017-11-28T12:15:07.694Z,616
2017-11-28T12:16:07.938Z,624
2017-11-28T12:17:07.930Z,628
2017-11-28T12:18:08.178Z,628
2017-11-28T12:19:08.177Z,632
2017-11-28T12:20:07.918Z,640
2017-11-28T12:21:08.015Z,656
2017-11-28T12:22:07.876Z,676
2017-11-28T12:23:07.868Z,692
2017-11-28T12:24:07.594Z,692
2017-11-28T12:25:07.596Z,688
2017-11-28T12:26:08.090Z,676
2017-11-28T12:27:08.083Z,680
2017-11-28T12:28:08.073Z,692
2017-11-28T12:29:08.060Z,704
2017-11-28T12:30:08.099Z,700
2017-11-28T12:31:07.528Z,708
2017-11-28T12:32:07.775Z,712
2017-11-28T12:33:07.765Z,720
2017-11-28T12:34:07.498Z,708
2017-11-28T12:35:07.486Z,688
2017-11-28T12:36:07.833Z,668
2017-11-28T12:37:07.977Z,660
2017-11-28T12:38:07.711Z,656
2017-11-28T12:39:07.704Z,644
2017-11-28T12:40:07.700Z,636
2017-11-28T12:41:07.690Z,612
2017-11-28T12:42:07.937Z,580
2017-11-28T12:43:07.916Z,556
2017-11-28T12:44:07.762Z,544
2017-11-28T12:45:07.892Z,532
2017-11-28T12:46:07.886Z,528
2017-11-28T12:47:07.884Z,524
2017-11-28T12:48:07.866Z,524
2017-11-28T12:49:07.700Z,528
2017-11-28T12:50:07.427Z,532
2017-11-28T12:51:07.834Z,528
2017-11-28T12:52:07.568Z,528
2017-11-28T12:53:07.559Z,532
2017-11-28T12:54:07.805Z,532
2017-11-28T12:55:07.281Z,532
2017-11-28T12:56:07.271Z,528
2017-11-28T12:57:07.781Z,528
2017-11-28T12:58:07.506Z,524
2017-11-28T12:59:07.507Z,528
2017-11-28T13:00:07.587Z,520
2017-11-28T13:01:07.479Z,520
2017-11-28T13:02:07.740Z,520
2017-11-28T13:03:07.714Z,520
2017-11-28T13:04:07.705Z,524
2017-11-28T13:05:07.690Z,512
2017-11-28T13:06:07.693Z,512
2017-11-28T13:07:07.418Z,528
2017-11-28T13:08:07.670Z,528
2017-11-28T13:09:07.406Z,524
2017-11-28T13:10:07.381Z,528
2017-11-28T13:11:07.370Z,520
2017-11-28T13:12:07.619Z,512
2017-11-28T13:13:07.351Z,496
2017-11-28T13:14:07.092Z,484
2017-11-28T13:15:07.174Z,476
2017-11-28T13:16:07.576Z,484
2017-11-28T13:17:07.565Z,476
2017-11-28T13:18:07.302Z,484
2017-11-28T13:19:07.554Z,496
2017-11-28T13:20:07.300Z,512
2017-11-28T13:21:07.370Z,524
2017-11-28T13:22:07.526Z,520
2017-11-28T13:23:07.263Z,508
2017-11-28T13:24:07.239Z,500
2017-11-28T13:25:07.497Z,488
2017-11-28T13:26:07.226Z,476
2017-11-28T13:27:07.475Z,472
2017-11-28T13:28:06.936Z,472
2017-11-28T13:29:07.470Z,472
2017-11-28T13:30:07.217Z,484
2017-11-28T13:31:07.189Z,496
2017-11-28T13:32:07.279Z,504
2017-11-28T13:33:07.431Z,508
2017-11-28T13:34:07.157Z,508
2017-11-28T13:35:07.146Z,516
2017-11-28T13:36:07.138Z,504
2017-11-28T13:37:07.390Z,484
2017-11-28T13:38:07.377Z,460
2017-11-28T13:39:07.102Z,448
2017-11-28T13:40:07.096Z,440
2017-11-28T13:41:07.345Z,436
2017-11-28T13:42:07.334Z,428
2017-11-28T13:43:07.321Z,428
2017-11-28T13:44:07.323Z,440
2017-11-28T13:45:07.049Z,440
2017-11-28T13:46:07.328Z,444
2017-11-28T13:47:07.022Z,444
2017-11-28T13:48:07.021Z,432
2017-11-28T13:49:06.999Z,416
2017-11-28T13:50:06.992Z,396
2017-11-28T13:51:07.080Z,388
2017-11-28T13:52:06.971Z,380
2017-11-28T13:53:07.218Z,376
2017-11-28T13:54:06.431Z,368
2017-11-28T13:55:07.204Z,360
2017-11-28T13:56:07.196Z,336
2017-11-28T13:57:06.927Z,356
2017-11-28T13:58:07.178Z,400
2017-11-28T13:59:06.907Z,388
2017-11-28T14:00:07.194Z,328
2017-11-28T14:01:07.137Z,328
2017-11-28T14:02:07.131Z,380
2017-11-28T14:03:07.124Z,392
2017-11-28T14:04:06.864Z,396
2017-11-28T14:05:07.098Z,392
2017-11-28T14:06:06.939Z,396
2017-11-28T14:07:06.569Z,404
2017-11-28T14:08:07.065Z,396
2017-11-28T14:09:07.055Z,372
2017-11-28T14:10:07.048Z,344
2017-11-28T14:11:07.043Z,324
2017-11-28T14:12:06.870Z,308
2017-11-28T14:13:07.025Z,300
2017-11-28T14:14:07.008Z,292